sensor_id;sensor_type;location;lat;lon;timestamp;P1;durP1;ratioP1;P2;durP2;ratioP2
6898;SDS011;3488;42.616;23.350;2023-05-10T00:01:45;6.80;;;5.97;;
6898;SDS011;3488;42.616;23.350;2023-05-10T00:04:13;8.82;;;7.05;;
6898;SDS011;3488;42.616;23.350;2023-05-10T00:06:40;8.52;;;7.53;;
6898;SDS011;3488;42.616;23.350;2023-05-10T00:09:08;7.82;;;6.55;;
6898;SDS011;3488;42.616;23.350;2023-05-10T00:11:35;8.32;;;7.47;;
6898;SDS011;3488;42.616;23.350;2023-05-10T00:14:02;7.57;;;6.78;;
6898;SDS011;3488;42.616;23.350;2023-05-10T00:16:30;7.05;;;6.45;;
6898;SDS011;3488;42.616;23.350;2023-05-10T00:18:57;10.00;;;7.07;;
6898;SDS011;3488;42.616;23.350;2023-05-10T00:21:25;7.85;;;7.05;;
6898;SDS011;3488;42.616;23.350;2023-05-10T00:23:53;8.52;;;7.43;;
6898;SDS011;3488;42.616;23.350;2023-05-10T00:26:20;10.13;;;7.82;;
6898;SDS011;3488;42.616;23.350;2023-05-10T00:28:47;9.63;;;7.28;;
6898;SDS011;3488;42.616;23.350;2023-05-10T00:31:14;8.50;;;7.65;;
6898;SDS011;3488;42.616;23.350;2023-05-10T00:33:42;8.05;;;7.35;;
6898;SDS011;3488;42.616;23.350;2023-05-10T00:36:09;8.40;;;7.38;;
6898;SDS011;3488;42.616;23.350;2023-05-10T00:38:37;7.88;;;7.10;;
6898;SDS011;3488;42.616;23.350;2023-05-10T00:41:04;7.85;;;7.07;;
6898;SDS011;3488;42.616;23.350;2023-05-10T00:43:31;7.60;;;6.90;;
6898;SDS011;3488;42.616;23.350;2023-05-10T00:45:59;7.78;;;7.07;;
6898;SDS011;3488;42.616;23.350;2023-05-10T00:48:26;7.70;;;6.95;;
6898;SDS011;3488;42.616;23.350;2023-05-10T00:50:54;8.07;;;7.28;;
6898;SDS011;3488;42.616;23.350;2023-05-10T00:53:21;8.75;;;7.95;;
6898;SDS011;3488;42.616;23.350;2023-05-10T00:55:50;9.35;;;7.68;;
6898;SDS011;3488;42.616;23.350;2023-05-10T00:58:18;9.07;;;7.70;;
6898;SDS011;3488;42.616;23.350;2023-05-10T01:00:45;7.60;;;6.90;;
6898;SDS011;3488;42.616;23.350;2023-05-10T01:03:13;8.55;;;7.65;;
6898;SDS011;3488;42.616;23.350;2023-05-10T01:05:40;9.57;;;7.07;;
6898;SDS011;3488;42.616;23.350;2023-05-10T01:08:07;7.75;;;7.05;;
6898;SDS011;3488;42.616;23.350;2023-05-10T01:10:34;8.55;;;7.40;;
6898;SDS011;3488;42.616;23.350;2023-05-10T01:13:03;7.72;;;6.93;;
6898;SDS011;3488;42.616;23.350;2023-05-10T01:15:30;7.78;;;6.95;;
6898;SDS011;3488;42.616;23.350;2023-05-10T01:17:58;8.18;;;7.40;;
6898;SDS011;3488;42.616;23.350;2023-05-10T01:20:27;9.85;;;6.78;;
6898;SDS011;3488;42.616;23.350;2023-05-10T01:23:07;8.38;;;7.57;;
6898;SDS011;3488;42.616;23.350;2023-05-10T01:25:58;8.48;;;7.57;;
6898;SDS011;3488;42.616;23.350;2023-05-10T01:34:50;7.30;;;6.60;;
6898;SDS011;3488;42.616;23.350;2023-05-10T01:37:25;6.75;;;6.10;;
6898;SDS011;3488;42.616;23.350;2023-05-10T01:40:01;6.90;;;5.85;;
6898;SDS011;3488;42.616;23.350;2023-05-10T01:42:36;6.20;;;5.70;;
6898;SDS011;3488;42.616;23.350;2023-05-10T01:45:10;6.88;;;5.50;;
6898;SDS011;3488;42.616;23.350;2023-05-10T01:47:46;5.55;;;5.05;;
6898;SDS011;3488;42.616;23.350;2023-05-10T01:50:19;4.90;;;4.60;;
6898;SDS011;3488;42.616;23.350;2023-05-10T01:52:54;5.65;;;4.80;;
6898;SDS011;3488;42.616;23.350;2023-05-10T01:55:25;5.00;;;4.60;;
6898;SDS011;3488;42.616;23.350;2023-05-10T01:57:57;5.20;;;4.80;;
6898;SDS011;3488;42.616;23.350;2023-05-10T02:00:28;5.65;;;5.00;;
6898;SDS011;3488;42.616;23.350;2023-05-10T02:02:58;4.65;;;4.35;;
6898;SDS011;3488;42.616;23.350;2023-05-10T02:05:28;5.22;;;4.80;;
6898;SDS011;3488;42.616;23.350;2023-05-10T02:07:58;4.13;;;3.92;;
6898;SDS011;3488;42.616;23.350;2023-05-10T02:10:27;4.32;;;3.92;;
6898;SDS011;3488;42.616;23.350;2023-05-10T02:12:55;5.28;;;4.88;;
6898;SDS011;3488;42.616;23.350;2023-05-10T02:15:26;4.63;;;4.32;;
6898;SDS011;3488;42.616;23.350;2023-05-10T02:17:55;5.68;;;5.18;;
6898;SDS011;3488;42.616;23.350;2023-05-10T02:20:24;5.20;;;4.80;;
6898;SDS011;3488;42.616;23.350;2023-05-10T02:22:54;5.18;;;4.78;;
6898;SDS011;3488;42.616;23.350;2023-05-10T02:25:23;6.78;;;5.45;;
6898;SDS011;3488;42.616;23.350;2023-05-10T02:27:51;5.50;;;5.10;;
6898;SDS011;3488;42.616;23.350;2023-05-10T02:30:22;6.10;;;5.57;;
6898;SDS011;3488;42.616;23.350;2023-05-10T02:32:50;5.60;;;5.13;;
6898;SDS011;3488;42.616;23.350;2023-05-10T02:35:18;6.28;;;5.70;;
6898;SDS011;3488;42.616;23.350;2023-05-10T02:37:47;5.97;;;5.50;;
6898;SDS011;3488;42.616;23.350;2023-05-10T02:40:16;5.38;;;4.97;;
6898;SDS011;3488;42.616;23.350;2023-05-10T02:42:46;5.00;;;4.60;;
6898;SDS011;3488;42.616;23.350;2023-05-10T02:45:17;5.05;;;4.60;;
6898;SDS011;3488;42.616;23.350;2023-05-10T02:47:46;5.72;;;5.22;;
6898;SDS011;3488;42.616;23.350;2023-05-10T02:50:13;8.48;;;5.68;;
6898;SDS011;3488;42.616;23.350;2023-05-10T02:52:42;6.00;;;5.50;;
6898;SDS011;3488;42.616;23.350;2023-05-10T02:55:15;7.88;;;6.15;;
6898;SDS011;3488;42.616;23.350;2023-05-10T02:57:53;5.28;;;4.88;;
6898;SDS011;3488;42.616;23.350;2023-05-10T03:00:25;5.95;;;4.72;;
6898;SDS011;3488;42.616;23.350;2023-05-10T03:02:53;5.57;;;5.07;;
6898;SDS011;3488;42.616;23.350;2023-05-10T03:05:21;5.65;;;5.05;;
6898;SDS011;3488;42.616;23.350;2023-05-10T03:07:48;5.80;;;5.30;;
6898;SDS011;3488;42.616;23.350;2023-05-10T03:10:18;5.72;;;5.28;;
6898;SDS011;3488;42.616;23.350;2023-05-10T03:12:48;6.05;;;5.50;;
6898;SDS011;3488;42.616;23.350;2023-05-10T03:15:28;6.30;;;5.18;;
6898;SDS011;3488;42.616;23.350;2023-05-10T03:18:10;6.07;;;5.32;;
6898;SDS011;3488;42.616;23.350;2023-05-10T03:20:41;5.57;;;5.07;;
6898;SDS011;3488;42.616;23.350;2023-05-10T03:23:11;5.25;;;4.75;;
6898;SDS011;3488;42.616;23.350;2023-05-10T03:25:45;5.25;;;4.85;;
6898;SDS011;3488;42.616;23.350;2023-05-10T03:28:16;5.10;;;4.70;;
6898;SDS011;3488;42.616;23.350;2023-05-10T03:30:47;5.63;;;5.22;;
6898;SDS011;3488;42.616;23.350;2023-05-10T03:33:15;5.85;;;5.35;;
6898;SDS011;3488;42.616;23.350;2023-05-10T03:35:42;5.82;;;5.32;;
6898;SDS011;3488;42.616;23.350;2023-05-10T03:38:11;6.25;;;5.75;;
6898;SDS011;3488;42.616;23.350;2023-05-10T03:40:38;5.28;;;4.78;;
6898;SDS011;3488;42.616;23.350;2023-05-10T03:43:07;5.95;;;5.40;;
6898;SDS011;3488;42.616;23.350;2023-05-10T03:45:34;7.38;;;5.53;;
6898;SDS011;3488;42.616;23.350;2023-05-10T03:48:02;6.45;;;5.60;;
6898;SDS011;3488;42.616;23.350;2023-05-10T03:50:29;8.52;;;6.45;;
6898;SDS011;3488;42.616;23.350;2023-05-10T03:52:57;12.38;;;7.88;;
6898;SDS011;3488;42.616;23.350;2023-05-10T03:55:24;7.40;;;6.80;;
6898;SDS011;3488;42.616;23.350;2023-05-10T03:57:51;11.27;;;6.60;;
6898;SDS011;3488;42.616;23.350;2023-05-10T04:00:20;9.18;;;6.18;;
6898;SDS011;3488;42.616;23.350;2023-05-10T04:02:47;6.82;;;5.97;;
6898;SDS011;3488;42.616;23.350;2023-05-10T04:05:14;9.10;;;6.90;;
6898;SDS011;3488;42.616;23.350;2023-05-10T04:07:42;7.05;;;6.38;;
6898;SDS011;3488;42.616;23.350;2023-05-10T04:10:09;7.05;;;6.35;;
6898;SDS011;3488;42.616;23.350;2023-05-10T04:12:37;6.88;;;6.00;;
6898;SDS011;3488;42.616;23.350;2023-05-10T04:15:05;8.75;;;6.93;;
6898;SDS011;3488;42.616;23.350;2023-05-10T04:17:34;14.60;;;8.15;;
6898;SDS011;3488;42.616;23.350;2023-05-10T04:20:02;15.18;;;8.55;;
6898;SDS011;3488;42.616;23.350;2023-05-10T04:22:31;18.05;;;9.60;;
6898;SDS011;3488;42.616;23.350;2023-05-10T04:24:58;13.18;;;8.98;;
6898;SDS011;3488;42.616;23.350;2023-05-10T04:27:25;16.55;;;10.65;;
6898;SDS011;3488;42.616;23.350;2023-05-10T04:29:52;21.90;;;11.40;;
6898;SDS011;3488;42.616;23.350;2023-05-10T04:32:20;23.05;;;12.60;;
6898;SDS011;3488;42.616;23.350;2023-05-10T04:34:48;25.10;;;12.45;;
6898;SDS011;3488;42.616;23.350;2023-05-10T04:37:17;9.55;;;7.90;;
6898;SDS011;3488;42.616;23.350;2023-05-10T04:39:45;7.47;;;6.78;;
6898;SDS011;3488;42.616;23.350;2023-05-10T04:42:12;15.07;;;9.45;;
6898;SDS011;3488;42.616;23.350;2023-05-10T04:44:40;16.17;;;9.63;;
6898;SDS011;3488;42.616;23.350;2023-05-10T04:47:07;20.30;;;10.43;;
6898;SDS011;3488;42.616;23.350;2023-05-10T04:49:34;16.63;;;8.07;;
6898;SDS011;3488;42.616;23.350;2023-05-10T04:52:03;12.80;;;8.50;;
6898;SDS011;3488;42.616;23.350;2023-05-10T04:54:30;10.43;;;8.20;;
6898;SDS011;3488;42.616;23.350;2023-05-10T04:56:57;7.20;;;6.60;;
6898;SDS011;3488;42.616;23.350;2023-05-10T04:59:25;6.63;;;6.13;;
6898;SDS011;3488;42.616;23.350;2023-05-10T05:01:52;8.35;;;6.63;;
6898;SDS011;3488;42.616;23.350;2023-05-10T05:04:20;7.22;;;6.45;;
6898;SDS011;3488;42.616;23.350;2023-05-10T05:06:48;6.47;;;5.85;;
6898;SDS011;3488;42.616;23.350;2023-05-10T05:09:16;5.25;;;4.90;;
6898;SDS011;3488;42.616;23.350;2023-05-10T05:11:44;7.47;;;6.75;;
6898;SDS011;3488;42.616;23.350;2023-05-10T05:14:10;6.00;;;5.45;;
6898;SDS011;3488;42.616;23.350;2023-05-10T05:16:37;7.47;;;6.38;;
6898;SDS011;3488;42.616;23.350;2023-05-10T05:19:05;6.20;;;5.63;;
6898;SDS011;3488;42.616;23.350;2023-05-10T05:21:32;6.28;;;5.78;;
6898;SDS011;3488;42.616;23.350;2023-05-10T05:24:00;7.82;;;7.05;;
6898;SDS011;3488;42.616;23.350;2023-05-10T05:26:28;7.13;;;5.40;;
6898;SDS011;3488;42.616;23.350;2023-05-10T05:28:55;7.93;;;6.60;;
6898;SDS011;3488;42.616;23.350;2023-05-10T05:31:22;11.15;;;6.68;;
6898;SDS011;3488;42.616;23.350;2023-05-10T05:33:50;7.57;;;6.80;;
6898;SDS011;3488;42.616;23.350;2023-05-10T05:36:17;8.50;;;6.47;;
6898;SDS011;3488;42.616;23.350;2023-05-10T05:38:44;7.13;;;6.47;;
6898;SDS011;3488;42.616;23.350;2023-05-10T05:41:11;8.93;;;7.63;;
6898;SDS011;3488;42.616;23.350;2023-05-10T05:43:39;10.80;;;8.52;;
6898;SDS011;3488;42.616;23.350;2023-05-10T05:46:07;8.63;;;7.40;;
6898;SDS011;3488;42.616;23.350;2023-05-10T05:48:34;8.38;;;7.57;;
6898;SDS011;3488;42.616;23.350;2023-05-10T05:51:01;8.65;;;7.15;;
6898;SDS011;3488;42.616;23.350;2023-05-10T05:53:28;9.27;;;7.65;;
6898;SDS011;3488;42.616;23.350;2023-05-10T05:55:55;10.82;;;7.85;;
6898;SDS011;3488;42.616;23.350;2023-05-10T05:58:24;8.02;;;7.22;;
6898;SDS011;3488;42.616;23.350;2023-05-10T06:00:53;9.70;;;7.50;;
6898;SDS011;3488;42.616;23.350;2023-05-10T06:03:20;8.77;;;7.45;;
6898;SDS011;3488;42.616;23.350;2023-05-10T06:05:47;13.25;;;7.65;;
6898;SDS011;3488;42.616;23.350;2023-05-10T06:08:14;12.00;;;8.55;;
6898;SDS011;3488;42.616;23.350;2023-05-10T06:10:41;12.88;;;8.55;;
6898;SDS011;3488;42.616;23.350;2023-05-10T06:13:09;10.43;;;8.93;;
6898;SDS011;3488;42.616;23.350;2023-05-10T06:15:36;10.25;;;8.07;;
6898;SDS011;3488;42.616;23.350;2023-05-10T06:18:06;10.18;;;7.80;;
6898;SDS011;3488;42.616;23.350;2023-05-10T06:20:33;12.02;;;8.82;;
6898;SDS011;3488;42.616;23.350;2023-05-10T06:22:59;10.85;;;9.40;;
6898;SDS011;3488;42.616;23.350;2023-05-10T06:25:26;11.23;;;9.63;;
6898;SDS011;3488;42.616;23.350;2023-05-10T06:27:53;12.00;;;9.18;;
6898;SDS011;3488;42.616;23.350;2023-05-10T06:30:24;11.75;;;9.82;;
6898;SDS011;3488;42.616;23.350;2023-05-10T06:32:53;13.32;;;9.23;;
6898;SDS011;3488;42.616;23.350;2023-05-10T06:35:22;13.90;;;10.15;;
6898;SDS011;3488;42.616;23.350;2023-05-10T06:37:50;14.18;;;10.15;;
6898;SDS011;3488;42.616;23.350;2023-05-10T06:40:18;12.63;;;9.20;;
6898;SDS011;3488;42.616;23.350;2023-05-10T06:42:45;11.27;;;9.45;;
6898;SDS011;3488;42.616;23.350;2023-05-10T06:45:12;10.88;;;9.20;;
6898;SDS011;3488;42.616;23.350;2023-05-10T06:47:40;14.63;;;10.18;;
6898;SDS011;3488;42.616;23.350;2023-05-10T06:50:07;11.57;;;9.50;;
6898;SDS011;3488;42.616;23.350;2023-05-10T06:52:37;11.07;;;9.75;;
6898;SDS011;3488;42.616;23.350;2023-05-10T06:55:04;11.85;;;9.10;;
6898;SDS011;3488;42.616;23.350;2023-05-10T06:57:32;13.82;;;9.32;;
6898;SDS011;3488;42.616;23.350;2023-05-10T06:59:59;12.02;;;9.77;;
6898;SDS011;3488;42.616;23.350;2023-05-10T07:02:26;12.73;;;9.43;;
6898;SDS011;3488;42.616;23.350;2023-05-10T07:04:53;18.15;;;12.07;;
6898;SDS011;3488;42.616;23.350;2023-05-10T07:07:20;20.25;;;12.30;;
6898;SDS011;3488;42.616;23.350;2023-05-10T07:09:48;18.23;;;11.10;;
6898;SDS011;3488;42.616;23.350;2023-05-10T07:12:16;14.13;;;10.88;;
6898;SDS011;3488;42.616;23.350;2023-05-10T07:14:43;13.00;;;9.90;;
6898;SDS011;3488;42.616;23.350;2023-05-10T07:17:10;22.88;;;13.02;;
6898;SDS011;3488;42.616;23.350;2023-05-10T07:19:37;13.25;;;10.98;;
6898;SDS011;3488;42.616;23.350;2023-05-10T07:22:04;11.57;;;9.88;;
6898;SDS011;3488;42.616;23.350;2023-05-10T07:24:31;10.10;;;8.77;;
6898;SDS011;3488;42.616;23.350;2023-05-10T07:27:00;12.02;;;9.48;;
6898;SDS011;3488;42.616;23.350;2023-05-10T07:29:28;11.15;;;9.70;;
6898;SDS011;3488;42.616;23.350;2023-05-10T07:31:55;11.57;;;9.15;;
6898;SDS011;3488;42.616;23.350;2023-05-10T07:34:22;12.10;;;9.27;;
6898;SDS011;3488;42.616;23.350;2023-05-10T07:36:49;10.57;;;8.60;;
6898;SDS011;3488;42.616;23.350;2023-05-10T07:39:18;11.75;;;9.07;;
6898;SDS011;3488;42.616;23.350;2023-05-10T07:41:45;10.82;;;9.48;;
6898;SDS011;3488;42.616;23.350;2023-05-10T07:44:14;12.55;;;9.20;;
6898;SDS011;3488;42.616;23.350;2023-05-10T07:46:43;12.10;;;10.43;;
6898;SDS011;3488;42.616;23.350;2023-05-10T07:49:10;15.88;;;10.40;;
6898;SDS011;3488;42.616;23.350;2023-05-10T07:51:37;13.63;;;10.80;;
6898;SDS011;3488;42.616;23.350;2023-05-10T07:54:04;14.40;;;11.43;;
6898;SDS011;3488;42.616;23.350;2023-05-10T07:56:32;11.90;;;10.48;;
6898;SDS011;3488;42.616;23.350;2023-05-10T07:59:00;14.50;;;10.52;;
6898;SDS011;3488;42.616;23.350;2023-05-10T08:01:31;15.82;;;11.85;;
6898;SDS011;3488;42.616;23.350;2023-05-10T08:03:58;11.98;;;10.07;;
6898;SDS011;3488;42.616;23.350;2023-05-10T08:06:26;12.40;;;9.48;;
6898;SDS011;3488;42.616;23.350;2023-05-10T08:08:55;12.48;;;9.60;;
6898;SDS011;3488;42.616;23.350;2023-05-10T08:11:22;10.35;;;9.25;;
6898;SDS011;3488;42.616;23.350;2023-05-10T08:13:49;12.68;;;10.30;;
6898;SDS011;3488;42.616;23.350;2023-05-10T08:16:17;12.60;;;10.27;;
6898;SDS011;3488;42.616;23.350;2023-05-10T08:18:46;16.23;;;10.32;;
6898;SDS011;3488;42.616;23.350;2023-05-10T08:21:14;11.23;;;10.02;;
6898;SDS011;3488;42.616;23.350;2023-05-10T08:23:41;13.38;;;10.05;;
6898;SDS011;3488;42.616;23.350;2023-05-10T08:26:09;11.88;;;9.93;;
6898;SDS011;3488;42.616;23.350;2023-05-10T08:28:36;12.85;;;10.85;;
6898;SDS011;3488;42.616;23.350;2023-05-10T08:31:03;13.55;;;10.70;;
6898;SDS011;3488;42.616;23.350;2023-05-10T08:33:31;13.25;;;10.07;;
6898;SDS011;3488;42.616;23.350;2023-05-10T08:35:59;9.90;;;8.90;;
6898;SDS011;3488;42.616;23.350;2023-05-10T08:38:26;10.38;;;9.25;;
6898;SDS011;3488;42.616;23.350;2023-05-10T08:40:53;10.55;;;9.10;;
6898;SDS011;3488;42.616;23.350;2023-05-10T08:43:24;13.07;;;9.35;;
6898;SDS011;3488;42.616;23.350;2023-05-10T08:45:54;12.25;;;8.80;;
6898;SDS011;3488;42.616;23.350;2023-05-10T08:48:21;9.57;;;8.60;;
6898;SDS011;3488;42.616;23.350;2023-05-10T08:50:51;10.85;;;9.20;;
6898;SDS011;3488;42.616;23.350;2023-05-10T08:53:22;11.80;;;9.55;;
6898;SDS011;3488;42.616;23.350;2023-05-10T08:55:52;9.48;;;8.48;;
6898;SDS011;3488;42.616;23.350;2023-05-10T08:58:19;9.25;;;8.27;;
6898;SDS011;3488;42.616;23.350;2023-05-10T09:00:48;9.77;;;8.77;;
6898;SDS011;3488;42.616;23.350;2023-05-10T09:03:16;15.90;;;9.73;;
6898;SDS011;3488;42.616;23.350;2023-05-10T09:05:44;10.13;;;8.60;;
6898;SDS011;3488;42.616;23.350;2023-05-10T09:08:12;13.20;;;9.63;;
6898;SDS011;3488;42.616;23.350;2023-05-10T09:10:42;18.25;;;10.90;;
6898;SDS011;3488;42.616;23.350;2023-05-10T09:13:12;10.27;;;9.27;;
6898;SDS011;3488;42.616;23.350;2023-05-10T09:15:40;13.80;;;9.50;;
6898;SDS011;3488;42.616;23.350;2023-05-10T09:18:08;9.55;;;8.55;;
6898;SDS011;3488;42.616;23.350;2023-05-10T09:20:38;13.40;;;10.18;;
6898;SDS011;3488;42.616;23.350;2023-05-10T09:23:06;12.32;;;9.70;;
6898;SDS011;3488;42.616;23.350;2023-05-10T09:25:33;11.00;;;9.82;;
6898;SDS011;3488;42.616;23.350;2023-05-10T09:28:02;14.07;;;9.85;;
6898;SDS011;3488;42.616;23.350;2023-05-10T09:30:32;13.02;;;10.57;;
6898;SDS011;3488;42.616;23.350;2023-05-10T09:33:00;17.05;;;10.70;;
6898;SDS011;3488;42.616;23.350;2023-05-10T09:35:28;10.73;;;8.65;;
6898;SDS011;3488;42.616;23.350;2023-05-10T09:37:57;14.88;;;9.70;;
6898;SDS011;3488;42.616;23.350;2023-05-10T09:40:26;9.93;;;8.85;;
6898;SDS011;3488;42.616;23.350;2023-05-10T09:42:57;13.20;;;9.88;;
6898;SDS011;3488;42.616;23.350;2023-05-10T09:45:27;11.70;;;9.40;;
6898;SDS011;3488;42.616;23.350;2023-05-10T09:47:58;10.45;;;9.40;;
6898;SDS011;3488;42.616;23.350;2023-05-10T09:50:27;10.75;;;9.25;;
6898;SDS011;3488;42.616;23.350;2023-05-10T09:52:55;10.13;;;9.13;;
6898;SDS011;3488;42.616;23.350;2023-05-10T09:55:24;10.82;;;8.88;;
6898;SDS011;3488;42.616;23.350;2023-05-10T09:57:58;12.27;;;10.07;;
6898;SDS011;3488;42.616;23.350;2023-05-10T10:00:28;11.80;;;8.55;;
6898;SDS011;3488;42.616;23.350;2023-05-10T10:03:01;10.93;;;9.80;;
6898;SDS011;3488;42.616;23.350;2023-05-10T10:05:29;12.70;;;10.93;;
6898;SDS011;3488;42.616;23.350;2023-05-10T10:07:57;10.80;;;9.77;;
6898;SDS011;3488;42.616;23.350;2023-05-10T10:10:25;10.30;;;9.30;;
6898;SDS011;3488;42.616;23.350;2023-05-10T10:12:53;9.73;;;8.82;;
6898;SDS011;3488;42.616;23.350;2023-05-10T10:15:21;11.70;;;9.95;;
6898;SDS011;3488;42.616;23.350;2023-05-10T10:17:51;11.45;;;10.27;;
6898;SDS011;3488;42.616;23.350;2023-05-10T10:20:19;9.73;;;8.80;;
6898;SDS011;3488;42.616;23.350;2023-05-10T10:22:47;13.55;;;10.85;;
6898;SDS011;3488;42.616;23.350;2023-05-10T10:25:17;10.95;;;9.85;;
6898;SDS011;3488;42.616;23.350;2023-05-10T10:27:47;10.70;;;9.52;;
6898;SDS011;3488;42.616;23.350;2023-05-10T10:30:25;10.70;;;9.57;;
6898;SDS011;3488;42.616;23.350;2023-05-10T10:33:01;12.13;;;9.65;;
6898;SDS011;3488;42.616;23.350;2023-05-10T10:35:51;11.00;;;9.88;;
6898;SDS011;3488;42.616;23.350;2023-05-10T10:38:19;11.85;;;10.50;;
6898;SDS011;3488;42.616;23.350;2023-05-10T10:40:48;10.43;;;9.32;;
6898;SDS011;3488;42.616;23.350;2023-05-10T10:43:28;10.15;;;9.15;;
6898;SDS011;3488;42.616;23.350;2023-05-10T10:46:11;10.25;;;9.07;;
6898;SDS011;3488;42.616;23.350;2023-05-10T10:48:41;11.70;;;9.15;;
6898;SDS011;3488;42.616;23.350;2023-05-10T10:51:14;9.77;;;8.77;;
6898;SDS011;3488;42.616;23.350;2023-05-10T10:53:42;10.50;;;9.40;;
6898;SDS011;3488;42.616;23.350;2023-05-10T10:56:10;11.48;;;8.32;;
6898;SDS011;3488;42.616;23.350;2023-05-10T10:58:40;9.45;;;8.35;;
6898;SDS011;3488;42.616;23.350;2023-05-10T11:01:11;9.20;;;8.18;;
6898;SDS011;3488;42.616;23.350;2023-05-10T11:03:41;8.80;;;7.90;;
6898;SDS011;3488;42.616;23.350;2023-05-10T11:06:41;10.40;;;8.52;;
6898;SDS011;3488;42.616;23.350;2023-05-10T11:09:09;10.35;;;8.40;;
6898;SDS011;3488;42.616;23.350;2023-05-10T11:11:48;10.48;;;9.13;;
6898;SDS011;3488;42.616;23.350;2023-05-10T11:14:15;8.75;;;8.05;;
6898;SDS011;3488;42.616;23.350;2023-05-10T11:16:47;9.48;;;8.48;;
6898;SDS011;3488;42.616;23.350;2023-05-10T11:19:16;8.23;;;7.53;;
6898;SDS011;3488;42.616;23.350;2023-05-10T11:21:45;12.30;;;7.90;;
6898;SDS011;3488;42.616;23.350;2023-05-10T11:24:13;9.23;;;7.97;;
6898;SDS011;3488;42.616;23.350;2023-05-10T11:26:42;9.38;;;7.63;;
6898;SDS011;3488;42.616;23.350;2023-05-10T11:29:09;8.70;;;7.90;;
6898;SDS011;3488;42.616;23.350;2023-05-10T11:31:41;8.18;;;7.38;;
6898;SDS011;3488;42.616;23.350;2023-05-10T11:34:10;10.25;;;8.07;;
6898;SDS011;3488;42.616;23.350;2023-05-10T11:36:40;8.45;;;7.63;;
6898;SDS011;3488;42.616;23.350;2023-05-10T11:39:07;9.13;;;8.23;;
6898;SDS011;3488;42.616;23.350;2023-05-10T11:41:36;9.80;;;8.38;;
6898;SDS011;3488;42.616;23.350;2023-05-10T11:44:03;9.48;;;8.50;;
6898;SDS011;3488;42.616;23.350;2023-05-10T11:46:31;12.27;;;8.63;;
6898;SDS011;3488;42.616;23.350;2023-05-10T11:48:59;10.32;;;8.57;;
6898;SDS011;3488;42.616;23.350;2023-05-10T11:51:29;9.50;;;8.00;;
6898;SDS011;3488;42.616;23.350;2023-05-10T11:54:01;9.63;;;8.35;;
6898;SDS011;3488;42.616;23.350;2023-05-10T11:56:32;9.50;;;8.63;;
6898;SDS011;3488;42.616;23.350;2023-05-10T11:58:59;10.25;;;8.23;;
6898;SDS011;3488;42.616;23.350;2023-05-10T12:01:27;8.35;;;7.65;;
6898;SDS011;3488;42.616;23.350;2023-05-10T12:03:55;8.90;;;8.07;;
6898;SDS011;3488;42.616;23.350;2023-05-10T12:06:26;9.90;;;8.68;;
6898;SDS011;3488;42.616;23.350;2023-05-10T12:08:54;8.75;;;7.95;;
6898;SDS011;3488;42.616;23.350;2023-05-10T12:11:25;9.57;;;8.77;;
6898;SDS011;3488;42.616;23.350;2023-05-10T12:13:54;8.93;;;8.07;;
6898;SDS011;3488;42.616;23.350;2023-05-10T12:16:22;9.52;;;8.52;;
6898;SDS011;3488;42.616;23.350;2023-05-10T12:18:50;8.80;;;8.00;;
6898;SDS011;3488;42.616;23.350;2023-05-10T12:21:19;10.30;;;8.38;;
6898;SDS011;3488;42.616;23.350;2023-05-10T12:23:48;12.05;;;8.60;;
6898;SDS011;3488;42.616;23.350;2023-05-10T12:26:17;9.32;;;8.18;;
6898;SDS011;3488;42.616;23.350;2023-05-10T12:28:46;13.85;;;9.52;;
6898;SDS011;3488;42.616;23.350;2023-05-10T12:31:13;9.80;;;8.90;;
6898;SDS011;3488;42.616;23.350;2023-05-10T12:33:40;9.00;;;8.10;;
6898;SDS011;3488;42.616;23.350;2023-05-10T12:36:08;10.18;;;8.90;;
6898;SDS011;3488;42.616;23.350;2023-05-10T12:38:37;10.77;;;9.68;;
6898;SDS011;3488;42.616;23.350;2023-05-10T12:41:07;13.82;;;9.13;;
6898;SDS011;3488;42.616;23.350;2023-05-10T12:43:36;9.70;;;8.70;;
6898;SDS011;3488;42.616;23.350;2023-05-10T12:46:06;13.18;;;8.88;;
6898;SDS011;3488;42.616;23.350;2023-05-10T12:48:34;10.00;;;9.00;;
6898;SDS011;3488;42.616;23.350;2023-05-10T12:51:02;9.50;;;8.68;;
6898;SDS011;3488;42.616;23.350;2023-05-10T12:53:30;12.15;;;10.13;;
6898;SDS011;3488;42.616;23.350;2023-05-10T12:55:58;9.80;;;8.80;;
6898;SDS011;3488;42.616;23.350;2023-05-10T12:58:26;8.93;;;8.05;;
6898;SDS011;3488;42.616;23.350;2023-05-10T13:00:53;10.30;;;8.98;;
6898;SDS011;3488;42.616;23.350;2023-05-10T13:03:23;9.73;;;8.65;;
6898;SDS011;3488;42.616;23.350;2023-05-10T13:05:50;9.85;;;8.70;;
6898;SDS011;3488;42.616;23.350;2023-05-10T13:08:17;12.30;;;9.20;;
6898;SDS011;3488;42.616;23.350;2023-05-10T13:10:44;8.95;;;8.07;;
6898;SDS011;3488;42.616;23.350;2023-05-10T13:13:11;15.52;;;8.68;;
6898;SDS011;3488;42.616;23.350;2023-05-10T13:15:38;9.73;;;8.77;;
6898;SDS011;3488;42.616;23.350;2023-05-10T13:18:05;12.80;;;9.10;;
6898;SDS011;3488;42.616;23.350;2023-05-10T13:20:34;10.00;;;8.98;;
6898;SDS011;3488;42.616;23.350;2023-05-10T13:23:01;11.38;;;9.05;;
6898;SDS011;3488;42.616;23.350;2023-05-10T13:25:28;9.90;;;8.52;;
6898;SDS011;3488;42.616;23.350;2023-05-10T13:27:55;11.43;;;8.82;;
6898;SDS011;3488;42.616;23.350;2023-05-10T13:30:22;9.85;;;8.85;;
6898;SDS011;3488;42.616;23.350;2023-05-10T13:32:50;9.35;;;8.35;;
6898;SDS011;3488;42.616;23.350;2023-05-10T13:35:17;9.68;;;8.05;;
6898;SDS011;3488;42.616;23.350;2023-05-10T13:37:46;10.32;;;8.32;;
6898;SDS011;3488;42.616;23.350;2023-05-10T13:40:13;9.77;;;8.38;;
6898;SDS011;3488;42.616;23.350;2023-05-10T13:42:41;9.27;;;8.30;;
6898;SDS011;3488;42.616;23.350;2023-05-10T13:45:09;10.13;;;9.10;;
6898;SDS011;3488;42.616;23.350;2023-05-10T13:47:38;9.70;;;8.43;;
6898;SDS011;3488;42.616;23.350;2023-05-10T13:50:05;9.40;;;8.32;;
6898;SDS011;3488;42.616;23.350;2023-05-10T13:52:33;10.15;;;8.98;;
6898;SDS011;3488;42.616;23.350;2023-05-10T13:55:02;11.75;;;7.93;;
6898;SDS011;3488;42.616;23.350;2023-05-10T13:57:31;8.68;;;7.80;;
6898;SDS011;3488;42.616;23.350;2023-05-10T13:59:59;10.93;;;8.40;;
6898;SDS011;3488;42.616;23.350;2023-05-10T14:02:26;16.73;;;8.63;;
6898;SDS011;3488;42.616;23.350;2023-05-10T14:04:53;8.63;;;7.82;;
6898;SDS011;3488;42.616;23.350;2023-05-10T14:07:20;9.75;;;8.40;;
6898;SDS011;3488;42.616;23.350;2023-05-10T14:09:47;10.70;;;9.13;;
6898;SDS011;3488;42.616;23.350;2023-05-10T14:12:16;8.75;;;7.85;;
6898;SDS011;3488;42.616;23.350;2023-05-10T14:14:43;9.23;;;8.32;;
6898;SDS011;3488;42.616;23.350;2023-05-10T14:17:10;12.63;;;8.18;;
6898;SDS011;3488;42.616;23.350;2023-05-10T14:19:37;8.90;;;7.65;;
6898;SDS011;3488;42.616;23.350;2023-05-10T14:22:05;9.48;;;8.23;;
6898;SDS011;3488;42.616;23.350;2023-05-10T14:24:34;11.95;;;7.97;;
6898;SDS011;3488;42.616;23.350;2023-05-10T14:27:02;9.75;;;8.75;;
6898;SDS011;3488;42.616;23.350;2023-05-10T14:29:31;9.68;;;8.68;;
6898;SDS011;3488;42.616;23.350;2023-05-10T14:31:59;9.48;;;8.50;;
6898;SDS011;3488;42.616;23.350;2023-05-10T14:34:26;9.23;;;8.32;;
6898;SDS011;3488;42.616;23.350;2023-05-10T14:36:53;10.38;;;8.75;;
6898;SDS011;3488;42.616;23.350;2023-05-10T14:39:21;11.20;;;7.78;;
6898;SDS011;3488;42.616;23.350;2023-05-10T14:41:48;8.43;;;7.63;;
6898;SDS011;3488;42.616;23.350;2023-05-10T14:44:16;9.27;;;7.72;;
6898;SDS011;3488;42.616;23.350;2023-05-10T14:46:46;9.30;;;8.05;;
6898;SDS011;3488;42.616;23.350;2023-05-10T14:49:14;9.15;;;7.55;;
6898;SDS011;3488;42.616;23.350;2023-05-10T14:51:42;9.43;;;8.30;;
6898;SDS011;3488;42.616;23.350;2023-05-10T14:54:10;8.65;;;7.85;;
6898;SDS011;3488;42.616;23.350;2023-05-10T14:56:37;8.57;;;7.63;;
6898;SDS011;3488;42.616;23.350;2023-05-10T14:59:04;9.23;;;7.28;;
6898;SDS011;3488;42.616;23.350;2023-05-10T15:01:31;9.07;;;7.20;;
6898;SDS011;3488;42.616;23.350;2023-05-10T15:03:59;10.70;;;8.38;;
6898;SDS011;3488;42.616;23.350;2023-05-10T15:06:30;10.55;;;8.00;;
6898;SDS011;3488;42.616;23.350;2023-05-10T15:08:57;10.85;;;8.00;;